createdAt,value
2023-02-15T00:01:54.792Z,102944.06
2023-02-15T00:04:24.194Z,102936.31
2023-02-15T00:06:52.108Z,102938.06
2023-02-15T00:09:19.717Z,102932.88
2023-02-15T00:11:51.138Z,102929.44
2023-02-15T00:14:20.455Z,102924.25
2023-02-15T00:16:49.965Z,102924.25
2023-02-15T00:19:18.360Z,102916.50
2023-02-15T00:21:46.101Z,102919.09
2023-02-15T00:24:15.208Z,102916.50
2023-02-15T00:26:43.536Z,102911.34
2023-02-15T00:29:12.198Z,102914.75
2023-02-15T00:31:39.983Z,102917.34
2023-02-15T00:34:12.535Z,102918.22
2023-02-15T00:36:40.440Z,102913.91
2023-02-15T00:39:08.116Z,102913.91
2023-02-15T00:41:36.026Z,102913.94
2023-02-15T00:44:03.862Z,102906.19
2023-02-15T00:46:31.706Z,102901.00
2023-02-15T00:48:59.373Z,102897.56
2023-02-15T00:51:28.375Z,102888.97
2023-02-15T00:53:56.045Z,102892.38
2023-02-15T00:56:23.758Z,102894.97
2023-02-15T00:58:53.942Z,102894.97
2023-02-15T01:01:22.185Z,102893.25
2023-02-15T01:03:49.942Z,102886.38
2023-02-15T01:06:18.452Z,102895.84
2023-02-15T01:08:47.742Z,102886.41
2023-02-15T01:11:16.059Z,102877.81
2023-02-15T01:13:44.009Z,102882.13
2023-02-15T01:16:11.660Z,102884.72
2023-02-15T01:18:39.289Z,102883.88
2023-02-15T01:21:14.760Z,102879.56
2023-02-15T01:23:43.029Z,102882.16
2023-02-15T01:26:12.326Z,102876.16
2023-02-15T01:28:40.219Z,102876.16
2023-02-15T01:31:08.729Z,102874.41
2023-02-15T01:33:37.298Z,102867.53
2023-02-15T01:36:05.676Z,102858.09
2023-02-15T01:38:33.651Z,102864.97
2023-02-15T01:41:15.224Z,102876.19
2023-02-15T01:43:45.576Z,102869.31
2023-02-15T01:46:15.324Z,102865.00
2023-02-15T01:48:45.788Z,102861.56
2023-02-15T01:51:13.869Z,102858.13
2023-02-15T01:53:44.539Z,102858.13
2023-02-15T01:56:15.438Z,102859.81
2023-02-15T01:58:44.804Z,102860.69
2023-02-15T02:01:12.521Z,102851.22
2023-02-15T02:03:44.577Z,102847.78
2023-02-15T02:06:12.276Z,102850.34
2023-02-15T02:08:41.046Z,102845.19
2023-02-15T02:11:11.931Z,102840.03
2023-02-15T02:13:40.071Z,102842.59
2023-02-15T02:16:13.556Z,102836.56
2023-02-15T02:18:48.124Z,102839.13
2023-02-15T02:21:34.542Z,102832.25
2023-02-15T02:24:19.639Z,102827.09
2023-02-15T02:27:10.132Z,102828.78
2023-02-15T02:29:55.910Z,102826.22
2023-02-15T02:32:41.442Z,102814.16
2023-02-15T02:35:13.631Z,102811.56
2023-02-15T02:37:48.144Z,102806.41
2023-02-15T02:40:19.988Z,102809.81
2023-02-15T02:42:51.457Z,102810.69
2023-02-15T02:45:23.160Z,102801.22
2023-02-15T02:47:53.208Z,102800.34
2023-02-15T02:50:24.520Z,102796.06
2023-02-15T02:52:52.777Z,102790.00
2023-02-15T02:55:23.673Z,102787.44
2023-02-15T02:57:54.932Z,102790.00
2023-02-15T03:00:24.561Z,102779.69
2023-02-15T03:02:55.328Z,102787.41
2023-02-15T03:05:27.333Z,102784.81
2023-02-15T03:07:55.895Z,102785.69
2023-02-15T03:10:25.766Z,102789.97
2023-02-15T03:12:53.991Z,102780.50
2023-02-15T03:15:22.922Z,102781.31
2023-02-15T03:17:53.213Z,102780.47
2023-02-15T03:20:26.503Z,102770.13
2023-02-15T03:22:57.818Z,102774.44
2023-02-15T03:25:27.783Z,102771.84
2023-02-15T03:27:57.023Z,102764.94
2023-02-15T03:30:25.331Z,102772.69
2023-02-15T03:32:53.981Z,102764.06
2023-02-15T03:35:23.562Z,102768.34
2023-02-15T03:37:53.752Z,102752.03
2023-02-15T03:40:43.213Z,102758.91
2023-02-15T03:43:15.046Z,102758.00
2023-02-15T03:45:55.665Z,102757.19
2023-02-15T03:48:26.532Z,102762.31
2023-02-15T03:51:16.484Z,102751.13
2023-02-15T03:53:45.219Z,102746.78
2023-02-15T03:56:14.289Z,102745.94
2023-02-15T03:58:59.124Z,102742.47
2023-02-15T04:01:58.548Z,102733.84
2023-02-15T04:04:27.596Z,102722.69
2023-02-15T04:06:55.216Z,102719.25
2023-02-15T04:09:40.628Z,102720.09
2023-02-15T04:12:09.987Z,102706.28
2023-02-15T04:14:55.507Z,102709.75
2023-02-15T04:17:23.154Z,102714.03
2023-02-15T04:20:08.087Z,102696.81
2023-02-15T04:22:52.882Z,102701.09
2023-02-15T04:25:21.049Z,102697.66
2023-02-15T04:27:51.535Z,102695.94
2023-02-15T04:30:20.636Z,102684.72
2023-02-15T04:32:48.275Z,102688.16
2023-02-15T04:35:16.275Z,102685.56
2023-02-15T04:37:44.192Z,102691.63
2023-02-15T04:40:12.653Z,102686.44
2023-02-15T04:42:40.331Z,102689.84
2023-02-15T04:45:09.712Z,102688.16
2023-02-15T04:47:37.411Z,102676.94
2023-02-15T04:50:05.293Z,102671.75
2023-02-15T04:52:32.909Z,102671.75
2023-02-15T04:55:00.575Z,102675.22
2023-02-15T04:57:28.216Z,102676.91
2023-02-15T04:59:55.955Z,102673.47
2023-02-15T05:02:25.034Z,102672.59
2023-02-15T05:04:52.707Z,102667.41
2023-02-15T05:07:21.233Z,102668.28
2023-02-15T05:09:48.967Z,102669.09
2023-02-15T05:12:16.730Z,102668.25
2023-02-15T05:14:44.465Z,102671.66
2023-02-15T05:17:12.171Z,102664.75
2023-02-15T05:19:41.157Z,102661.31
2023-02-15T05:22:08.908Z,102658.72
2023-02-15T05:24:53.961Z,102657.88
2023-02-15T05:27:38.299Z,102664.75
2023-02-15T05:30:06.885Z,102660.44
2023-02-15T05:32:34.694Z,102662.16
2023-02-15T05:35:03.839Z,102660.41
2023-02-15T05:37:31.491Z,102659.53
2023-02-15T05:39:59.224Z,102660.41
2023-02-15T05:42:27.006Z,102660.38
2023-02-15T05:44:54.680Z,102650.88
2023-02-15T05:47:22.303Z,102650.88
2023-02-15T05:49:49.949Z,102654.31
2023-02-15T05:52:19.123Z,102656.03
2023-02-15T05:54:46.829Z,102649.16
2023-02-15T05:57:14.496Z,102648.25
2023-02-15T05:59:42.159Z,102637.09
2023-02-15T06:02:09.844Z,102642.25
2023-02-15T06:04:37.486Z,102640.50
2023-02-15T06:07:05.104Z,102642.25
2023-02-15T06:09:34.151Z,102633.59
2023-02-15T06:12:01.786Z,102631.00
2023-02-15T06:14:29.505Z,102630.13
2023-02-15T06:16:57.116Z,102625.84
2023-02-15T06:19:24.946Z,102623.25
2023-02-15T06:21:52.548Z,102626.72
2023-02-15T06:24:20.204Z,102626.72
2023-02-15T06:26:49.191Z,102623.25
2023-02-15T06:29:16.893Z,102618.09
2023-02-15T06:31:44.695Z,102618.97
2023-02-15T06:34:12.472Z,102617.22
2023-02-15T06:36:40.132Z,102612.03
2023-02-15T06:39:07.926Z,102606.88
2023-02-15T06:41:35.915Z,102599.09
2023-02-15T06:44:05.261Z,102610.34
2023-02-15T06:46:32.989Z,102618.06
2023-02-15T06:49:00.768Z,102608.53
2023-02-15T06:51:28.500Z,102605.94
2023-02-15T06:53:56.298Z,102613.69
2023-02-15T06:56:23.976Z,102613.69
2023-02-15T06:58:51.595Z,102611.13
2023-02-15T07:01:20.922Z,102607.63
2023-02-15T07:03:48.625Z,102613.63
2023-02-15T07:06:16.332Z,102611.06
2023-02-15T07:08:44.065Z,102609.31
2023-02-15T07:11:28.966Z,102610.19
2023-02-15T07:13:56.564Z,102608.44
2023-02-15T07:16:25.650Z,102605.84
2023-02-15T07:18:53.561Z,102604.97
2023-02-15T07:21:21.197Z,102604.94
2023-02-15T07:23:48.806Z,102610.13
2023-02-15T07:26:16.441Z,102603.22
2023-02-15T07:28:44.053Z,102603.22
2023-02-15T07:31:11.829Z,102603.16
2023-02-15T07:33:40.986Z,102599.72
2023-02-15T07:36:10.722Z,102594.56
2023-02-15T07:38:38.958Z,102599.72
2023-02-15T07:41:07.768Z,102599.69
2023-02-15T07:43:36.203Z,102592.75
2023-02-15T07:46:04.292Z,102592.72
2023-02-15T07:48:32.198Z,102593.59
2023-02-15T07:51:02.323Z,102589.31
2023-02-15T07:53:30.414Z,102591.00
2023-02-15T07:56:00.593Z,102582.34
2023-02-15T07:58:48.572Z,102583.19
2023-02-15T08:01:16.362Z,102578.88
2023-02-15T08:03:44.041Z,102586.63
2023-02-15T08:06:14.150Z,102583.13
2023-02-15T08:08:41.959Z,102582.25
2023-02-15T08:11:30.225Z,102578.78
2023-02-15T08:14:00.465Z,102581.38
2023-02-15T08:16:30.117Z,102571.84
2023-02-15T08:18:58.484Z,102575.31
2023-02-15T08:21:29.479Z,102572.69
2023-02-15T08:23:57.297Z,102567.50
2023-02-15T08:26:25.857Z,102561.44
2023-02-15T08:28:53.778Z,102550.19
2023-02-15T08:31:21.512Z,102554.53
2023-02-15T08:33:49.700Z,102554.50
2023-02-15T08:36:18.224Z,102553.59
2023-02-15T08:38:47.703Z,102547.56
2023-02-15T08:41:16.569Z,102548.41
2023-02-15T08:43:44.564Z,102552.69
2023-02-15T08:46:13.027Z,102550.06
2023-02-15T08:48:40.724Z,102545.78
2023-02-15T08:51:09.388Z,102545.75
2023-02-15T08:53:37.168Z,102544.00
2023-02-15T08:56:06.710Z,102544.84
2023-02-15T08:58:34.816Z,102546.59
2023-02-15T09:01:04.491Z,102539.63
2023-02-15T09:03:32.607Z,102538.78
2023-02-15T09:06:00.741Z,102537.91
2023-02-15T09:08:28.784Z,102533.59
2023-02-15T09:10:56.632Z,102538.75
2023-02-15T09:13:25.820Z,102535.25
2023-02-15T09:16:00.616Z,102536.09
2023-02-15T09:18:28.438Z,102528.31
2023-02-15T09:20:56.363Z,102525.72
2023-02-15T09:23:27.170Z,102519.63
2023-02-15T09:25:55.190Z,102521.31
2023-02-15T09:28:22.798Z,102512.69
2023-02-15T09:30:51.924Z,102511.78
2023-02-15T09:33:19.619Z,102503.16
2023-02-15T09:35:47.232Z,102506.56
2023-02-15T09:38:15.440Z,102505.66
2023-02-15T09:40:51.316Z,102502.25
2023-02-15T09:43:29.669Z,102504.81
2023-02-15T09:46:07.904Z,102503.06
2023-02-15T09:48:41.486Z,102491.88
2023-02-15T09:51:23.797Z,102485.81
2023-02-15T09:54:03.438Z,102487.53
2023-02-15T09:56:37.939Z,102482.31
2023-02-15T09:59:11.505Z,102490.13
2023-02-15T10:01:45.453Z,102483.19
2023-02-15T10:04:43.346Z,102481.47
2023-02-15T10:07:18.589Z,102471.97
2023-02-15T10:09:51.368Z,102466.75
2023-02-15T10:12:29.480Z,102473.66
2023-02-15T10:15:12.677Z,102467.53
2023-02-15T10:17:48.508Z,102464.13
2023-02-15T10:20:24.130Z,102458.91
2023-02-15T10:22:59.095Z,102457.19
2023-02-15T10:25:31.846Z,102455.38
2023-02-15T10:28:01.404Z,102451.94
2023-02-15T10:30:34.901Z,102447.59
2023-02-15T10:33:05.324Z,102438.97
2023-02-15T10:35:37.365Z,102443.28
2023-02-15T10:38:15.894Z,102439.81
2023-02-15T10:40:47.437Z,102441.56
2023-02-15T10:43:34.972Z,102440.63
2023-02-15T10:46:08.895Z,102431.97
2023-02-15T10:48:44.101Z,102436.34
2023-02-15T10:51:16.377Z,102438.94
2023-02-15T10:53:52.412Z,102426.78
2023-02-15T10:56:22.876Z,102426.81
2023-02-15T10:58:58.539Z,102427.66
2023-02-15T11:01:30.395Z,102431.09
2023-02-15T11:04:10.179Z,102422.47
2023-02-15T11:06:40.348Z,102421.63
2023-02-15T11:09:11.866Z,102421.59
2023-02-15T11:11:43.050Z,102408.66
2023-02-15T11:14:16.070Z,102411.22
2023-02-15T11:16:46.226Z,102412.13
2023-02-15T11:19:16.409Z,102406.97
2023-02-15T11:21:46.073Z,102401.75
2023-02-15T11:24:14.757Z,102406.91
2023-02-15T11:26:44.885Z,102405.22
2023-02-15T11:29:15.492Z,102406.03
2023-02-15T11:31:45.717Z,102406.97
2023-02-15T11:34:20.933Z,102403.50
2023-02-15T11:36:51.113Z,102406.09
2023-02-15T11:39:20.361Z,102399.16
2023-02-15T11:41:53.032Z,102395.72
2023-02-15T11:44:23.872Z,102391.44
2023-02-15T11:46:51.582Z,102389.69
2023-02-15T11:49:25.060Z,102390.59
2023-02-15T11:51:53.228Z,102388.81
2023-02-15T11:54:23.781Z,102385.38
2023-02-15T11:56:51.487Z,102377.59
2023-02-15T11:59:24.248Z,102377.53
2023-02-15T12:01:52.444Z,102373.22
2023-02-15T12:04:23.767Z,102373.22
2023-02-15T12:06:55.148Z,102374.09
2023-02-15T12:09:27.794Z,102377.53
2023-02-15T12:11:55.415Z,102371.59
2023-02-15T12:14:23.024Z,102368.09
2023-02-15T12:16:51.942Z,102374.97
2023-02-15T12:19:37.176Z,102366.38
2023-02-15T12:22:09.329Z,102358.63
2023-02-15T12:24:40.070Z,102363.81
2023-02-15T12:27:15.303Z,102364.72
2023-02-15T12:29:44.137Z,102360.44
2023-02-15T12:32:13.815Z,102355.31
2023-02-15T12:34:43.783Z,102344.94
2023-02-15T12:37:17.675Z,102345.88
2023-02-15T12:39:53.292Z,102332.91
2023-02-15T12:42:21.422Z,102332.06
2023-02-15T12:44:55.608Z,102327.72
2023-02-15T12:47:29.010Z,102331.13
2023-02-15T12:50:12.188Z,102320.75
2023-02-15T12:52:41.623Z,102321.63
2023-02-15T12:55:13.746Z,102321.69
2023-02-15T12:57:41.434Z,102313.91
2023-02-15T13:00:26.884Z,102313.84
2023-02-15T13:02:55.636Z,102308.69
2023-02-15T13:05:27.170Z,102312.09
2023-02-15T13:07:58.201Z,102310.38
2023-02-15T13:10:27.853Z,102306.06
2023-02-15T13:12:55.723Z,102311.25
2023-02-15T13:15:28.512Z,102306.13
2023-02-15T13:17:57.492Z,102304.47
2023-02-15T13:20:27.490Z,102301.88
2023-02-15T13:23:00.289Z,102303.53
2023-02-15T13:25:29.490Z,102296.72
2023-02-15T13:27:59.512Z,102296.66
2023-02-15T13:30:28.284Z,102292.41
2023-02-15T13:32:58.167Z,102294.88
2023-02-15T13:35:27.008Z,102293.22
2023-02-15T13:38:03.268Z,102291.50
2023-02-15T13:40:35.664Z,102282.94
2023-02-15T13:43:07.633Z,102281.22
2023-02-15T13:45:39.970Z,102282.03
2023-02-15T13:48:13.274Z,102282.13
2023-02-15T13:50:48.901Z,102270.00
2023-02-15T13:53:27.929Z,102271.78
2023-02-15T13:55:57.658Z,102268.31
2023-02-15T13:58:37.536Z,102267.44
2023-02-15T14:01:10.710Z,102271.84
2023-02-15T14:03:56.400Z,102275.28
2023-02-15T14:06:40.894Z,102279.59
2023-02-15T14:09:16.844Z,102275.28
2023-02-15T14:11:48.728Z,102271.09
2023-02-15T14:14:33.957Z,102266.78
2023-02-15T14:17:07.405Z,102265.03
2023-02-15T14:19:37.815Z,102261.59
2023-02-15T14:22:12.730Z,102264.22
2023-02-15T14:24:45.591Z,102260.75
2023-02-15T14:27:18.637Z,102265.03
2023-02-15T14:29:49.868Z,102259.09
2023-02-15T14:32:20.912Z,102256.50
2023-02-15T14:34:50.935Z,102254.81
2023-02-15T14:37:21.293Z,102246.97
2023-02-15T14:40:11.849Z,102250.44
2023-02-15T14:42:44.692Z,102248.78
2023-02-15T14:45:19.662Z,102243.66
2023-02-15T14:47:50.700Z,102236.75
2023-02-15T14:50:38.296Z,102244.53
2023-02-15T14:53:17.155Z,102239.38
2023-02-15T14:55:46.193Z,102233.38
2023-02-15T14:58:14.496Z,102239.41
2023-02-15T15:00:42.516Z,102229.09
2023-02-15T15:03:25.132Z,102236.06
2023-02-15T15:05:55.001Z,102228.34
2023-02-15T15:08:29.049Z,102229.25
2023-02-15T15:10:58.199Z,102231.00
2023-02-15T15:13:40.324Z,102229.28
2023-02-15T15:16:22.840Z,102219.84
2023-02-15T15:18:51.059Z,102217.31
2023-02-15T15:21:33.591Z,102208.78
2023-02-15T15:24:01.257Z,102208.75
2023-02-15T15:26:31.724Z,102207.00
2023-02-15T15:29:01.106Z,102212.22
2023-02-15T15:31:34.508Z,102202.81
2023-02-15T15:34:24.079Z,102200.28
2023-02-15T15:37:20.521Z,102195.94
2023-02-15T15:40:22.567Z,102198.63
2023-02-15T15:43:06.894Z,102187.41
2023-02-15T15:45:46.048Z,102187.44
2023-02-15T15:48:22.380Z,102190.06
2023-02-15T15:50:54.989Z,102184.03
2023-02-15T15:53:24.331Z,102189.19
2023-02-15T15:55:53.120Z,102186.63
2023-02-15T15:58:22.462Z,102183.22
2023-02-15T16:00:52.036Z,102173.72
2023-02-15T16:03:23.006Z,102183.25
2023-02-15T16:05:55.326Z,102175.47
2023-02-15T16:08:30.424Z,102171.22
2023-02-15T16:10:58.625Z,102168.63
2023-02-15T16:13:28.608Z,102163.53
2023-02-15T16:15:57.437Z,102163.47
2023-02-15T16:18:26.921Z,102164.34
2023-02-15T16:20:56.389Z,102154.00
2023-02-15T16:23:35.376Z,102162.66
2023-02-15T16:26:07.877Z,102161.78
2023-02-15T16:28:37.299Z,102160.94
2023-02-15T16:31:08.210Z,102154.94
2023-02-15T16:33:37.531Z,102154.09
2023-02-15T16:36:08.510Z,102152.38
2023-02-15T16:38:53.808Z,102148.91
2023-02-15T16:41:23.886Z,102145.47
2023-02-15T16:43:55.055Z,102142.94
2023-02-15T16:46:25.789Z,102138.63
2023-02-15T16:48:54.649Z,102142.09
2023-02-15T16:51:26.463Z,102137.78
2023-02-15T16:53:56.299Z,102124.81
2023-02-15T16:56:25.438Z,102122.25
2023-02-15T16:58:56.404Z,102118.81
2023-02-15T17:01:26.038Z,102115.38
2023-02-15T17:04:12.008Z,102110.28
2023-02-15T17:06:39.846Z,102116.31
2023-02-15T17:09:10.545Z,102120.66
2023-02-15T17:11:42.439Z,102107.75
2023-02-15T17:14:16.454Z,102112.94
2023-02-15T17:16:49.890Z,102117.25
2023-02-15T17:19:19.604Z,102109.50
2023-02-15T17:21:50.017Z,102110.34
2023-02-15T17:24:19.490Z,102108.66
2023-02-15T17:26:50.892Z,102101.88
2023-02-15T17:29:24.562Z,102099.25
2023-02-15T17:31:53.588Z,102096.66
2023-02-15T17:34:39.873Z,102096.66
2023-02-15T17:37:12.787Z,102095.81
2023-02-15T17:39:41.410Z,102095.88
2023-02-15T17:42:09.551Z,102088.13
2023-02-15T17:44:38.527Z,102087.22
2023-02-15T17:47:06.271Z,102089.81
2023-02-15T17:49:35.020Z,102080.38
2023-02-15T17:52:03.219Z,102078.69
2023-02-15T17:54:48.169Z,102073.56
2023-02-15T17:57:16.880Z,102071.81
2023-02-15T18:00:03.247Z,102070.97
2023-02-15T18:02:53.157Z,102069.22
2023-02-15T18:05:38.288Z,102058.91
2023-02-15T18:08:24.474Z,102066.66
2023-02-15T18:11:09.460Z,102056.31
2023-02-15T18:13:37.181Z,102065.88
2023-02-15T18:16:06.638Z,102064.09
2023-02-15T18:18:34.697Z,102056.31
2023-02-15T18:21:02.691Z,102056.38
2023-02-15T18:23:30.472Z,102053.78
2023-02-15T18:25:58.448Z,102054.63
2023-02-15T18:28:28.292Z,102044.34
2023-02-15T18:30:56.093Z,102043.50
2023-02-15T18:33:30.567Z,102039.25
2023-02-15T18:35:58.248Z,102049.59
2023-02-15T18:38:25.871Z,102043.59
2023-02-15T18:40:53.732Z,102047.97
2023-02-15T18:43:21.382Z,102041.97
2023-02-15T18:45:49.064Z,102041.91
2023-02-15T18:48:16.792Z,102042.78
2023-02-15T18:50:46.067Z,102029.88
2023-02-15T18:53:17.315Z,102030.72
2023-02-15T18:55:44.998Z,102032.41
2023-02-15T18:58:16.230Z,102028.16
2023-02-15T19:00:45.429Z,102019.56
2023-02-15T19:03:14.361Z,102017.81
2023-02-15T19:05:43.084Z,102019.59
2023-02-15T19:08:17.473Z,102014.50
2023-02-15T19:10:45.625Z,102016.22
2023-02-15T19:13:13.795Z,102015.31
2023-02-15T19:15:41.993Z,102012.75
2023-02-15T19:18:09.605Z,102011.03
2023-02-15T19:20:39.220Z,102007.66
2023-02-15T19:23:08.090Z,102003.34
2023-02-15T19:25:39.064Z,102005.09
2023-02-15T19:28:10.147Z,102000.84
2023-02-15T19:30:38.751Z,101994.00
2023-02-15T19:33:06.688Z,101995.72
2023-02-15T19:35:35.938Z,101989.66
2023-02-15T19:38:05.531Z,101981.94
2023-02-15T19:40:34.352Z,101983.66
2023-02-15T19:43:03.713Z,101980.25
2023-02-15T19:45:32.428Z,101975.13
2023-02-15T19:48:01.831Z,101974.22
2023-02-15T19:50:31.695Z,101968.22
2023-02-15T19:52:59.431Z,101967.38
2023-02-15T19:55:28.337Z,101965.72
2023-02-15T19:57:56.847Z,101962.28
2023-02-15T20:00:27.193Z,101963.09
2023-02-15T20:02:55.574Z,101961.44
2023-02-15T20:05:23.661Z,101955.41
2023-02-15T20:07:52.024Z,101961.44
2023-02-15T20:10:20.601Z,101956.19
2023-02-15T20:12:49.049Z,101959.66
2023-02-15T20:15:21.329Z,101962.28
2023-02-15T20:17:50.766Z,101951.97
2023-02-15T20:20:19.373Z,101944.25
2023-02-15T20:22:48.179Z,101942.53
2023-02-15T20:25:19.229Z,101942.53
2023-02-15T20:27:46.964Z,101944.25
2023-02-15T20:30:18.877Z,101943.44
2023-02-15T20:32:46.650Z,101944.28
2023-02-15T20:35:16.688Z,101940.00
2023-02-15T20:37:44.985Z,101944.28
2023-02-15T20:40:19.908Z,101939.06
2023-02-15T20:42:47.968Z,101938.31
2023-02-15T20:45:16.707Z,101938.28
2023-02-15T20:47:48.550Z,101932.22
2023-02-15T20:50:19.546Z,101935.66
2023-02-15T20:52:47.732Z,101927.97
2023-02-15T20:55:16.352Z,101933.97
2023-02-15T20:57:44.148Z,101937.41
2023-02-15T21:00:23.927Z,101932.25
2023-02-15T21:02:52.535Z,101927.97
2023-02-15T21:05:23.072Z,101926.22
2023-02-15T21:07:51.604Z,101927.97
2023-02-15T21:10:20.163Z,101928.03
2023-02-15T21:12:48.288Z,101922.81
2023-02-15T21:15:33.842Z,101919.38
2023-02-15T21:18:02.775Z,101921.09
2023-02-15T21:20:32.497Z,101921.97
2023-02-15T21:23:02.110Z,101918.53
2023-02-15T21:25:30.700Z,101923.69
2023-02-15T21:27:58.360Z,101909.97
2023-02-15T21:30:26.218Z,101915.97
2023-02-15T21:32:54.368Z,101909.13
2023-02-15T21:35:22.092Z,101913.44
2023-02-15T21:37:52.317Z,101903.09
2023-02-15T21:40:21.621Z,101895.41
2023-02-15T21:43:07.443Z,101898.78
2023-02-15T21:45:52.677Z,101897.09
2023-02-15T21:48:21.867Z,101891.13
2023-02-15T21:51:07.895Z,101893.69
2023-02-15T21:53:38.547Z,101888.59
2023-02-15T21:56:07.108Z,101885.09
2023-02-15T21:58:36.673Z,101888.56
2023-02-15T22:01:04.829Z,101879.97
2023-02-15T22:03:33.950Z,101868.81
2023-02-15T22:06:03.131Z,101865.38
2023-02-15T22:08:30.966Z,101867.13
2023-02-15T22:11:00.119Z,101859.41
2023-02-15T22:13:29.322Z,101866.28
2023-02-15T22:15:57.108Z,101868.00
2023-02-15T22:18:25.794Z,101855.13
2023-02-15T22:20:53.959Z,101860.28
2023-02-15T22:23:21.976Z,101856.84
2023-02-15T22:25:54.772Z,101861.19
2023-02-15T22:28:26.078Z,101852.53
2023-02-15T22:30:53.842Z,101854.28
2023-02-15T22:33:23.583Z,101860.31
2023-02-15T22:35:51.538Z,101861.19
2023-02-15T22:38:19.412Z,101859.47
2023-02-15T22:40:47.920Z,101848.31
2023-02-15T22:43:29.110Z,101849.13
2023-02-15T22:45:58.942Z,101844.84
2023-02-15T22:48:26.806Z,101850.91
2023-02-15T22:50:54.887Z,101844.88
2023-02-15T22:53:22.581Z,101832.00
2023-02-15T22:55:50.447Z,101825.94
2023-02-15T22:58:19.925Z,101830.25
2023-02-15T23:00:49.159Z,101821.63
2023-02-15T23:03:18.348Z,101825.06
2023-02-15T23:05:46.099Z,101827.69
2023-02-15T23:08:14.203Z,101828.53
2023-02-15T23:10:42.810Z,101827.72
2023-02-15T23:13:26.161Z,101831.13
2023-02-15T23:15:56.848Z,101813.91
2023-02-15T23:18:28.883Z,101819.97
2023-02-15T23:20:58.121Z,101813.91
2023-02-15T23:23:28.450Z,101813.03
2023-02-15T23:25:56.177Z,101796.69
2023-02-15T23:28:27.681Z,101800.09
2023-02-15T23:30:57.058Z,101806.19
2023-02-15T23:33:26.373Z,101801.00
2023-02-15T23:35:54.071Z,101798.44
2023-02-15T23:38:23.385Z,101798.41
2023-02-15T23:41:09.974Z,101799.28
2023-02-15T23:43:38.063Z,101782.94
2023-02-15T23:46:07.826Z,101779.50
2023-02-15T23:48:36.735Z,101786.44
2023-02-15T23:51:05.117Z,101780.34
2023-02-15T23:53:33.507Z,101777.75
2023-02-15T23:56:01.220Z,101776.91
2023-02-15T23:58:36.345Z,101779.47
